Time;durP1;ratioP1;P1;durP2;ratioP2;P2;SDS_P1;SDS_P2;PMS_P1;PMS_P2;Temp;Humidity;BMP_temperature;BMP_pressure;BME280_temperature;BME280_humidity;BME280_pressure;Samples;Min_cycle;Max_cycle;Signal;HPM_P1;HPM_P2
2023/10/23 00:00:00;;;;;;;0.50;0.50;;;;;;;9.06;85.44;96638.97;29395;388;63009;-57
2023/10/23 00:00:31;;;;;;;0.50;0.50;;;;;;;9.05;85.77;96642.78;29395;233;63004;-58
2023/10/23 00:01:03;;;;;;;0.50;0.50;;;;;;;9.04;85.79;96645.78;29395;240;63009;-57
2023/10/23 00:01:38;;;;;;;0.50;0.50;;;;;;;9.04;85.94;96643.06;29395;218;63004;-57
2023/10/23 00:02:10;;;;;;;0.50;0.50;;;;;;;9.03;85.90;96641.47;29395;242;63009;-57
2023/10/23 00:02:41;;;;;;;0.50;0.50;;;;;;;9.02;86.18;96639.84;29394;197;64009;-57
2023/10/23 00:03:12;;;;;;;0.50;0.50;;;;;;;9.01;85.72;96643.66;29395;202;63009;-58
2023/10/23 00:03:43;;;;;;;0.50;0.50;;;;;;;8.97;85.97;96645.34;29395;377;63018;-66
2023/10/23 00:04:15;;;;;;;0.50;0.50;;;;;;;8.96;86.25;96643.72;29395;424;63018;-57
2023/10/23 00:04:46;;;;;;;0.50;0.50;;;;;;;8.94;85.95;96635.09;29395;214;63005;-57
2023/10/23 00:05:17;;;;;;;0.50;0.50;;;;;;;8.93;86.52;96642.41;29395;537;63009;-57
2023/10/23 00:05:50;;;;;;;0.50;0.50;;;;;;;8.93;86.71;96645.13;29395;331;63005;-57
2023/10/23 00:06:22;;;;;;;0.50;0.50;;;;;;;8.94;86.48;96645.91;29394;222;64013;-57
2023/10/23 00:06:53;;;;;;;0.50;0.50;;;;;;;8.93;86.96;96641.59;29394;434;64004;-56
2023/10/23 00:07:24;;;;;;;0.50;0.50;;;;;;;8.93;86.96;96642.41;29395;466;63009;-57
2023/10/23 00:07:55;;;;;;;0.50;0.50;;;;;;;8.92;86.86;96646.22;29395;196;63004;-57
2023/10/23 00:08:26;;;;;;;0.50;0.50;;;;;;;8.91;86.93;96635.66;29395;462;63004;-58
2023/10/23 00:08:58;;;;;;;0.50;0.50;;;;;;;8.91;86.94;96632.97;29395;243;63009;-58
2023/10/23 00:09:29;;;;;;;0.50;0.50;;;;;;;8.91;86.89;96644.59;29395;224;63009;-58
2023/10/23 00:10:00;;;;;;;0.50;0.50;;;;;;;8.91;86.84;96638.38;29395;438;63005;-57
2023/10/23 00:10:31;;;;;;;0.50;0.50;;;;;;;8.90;86.82;96647.59;29394;198;64014;-57
2023/10/23 00:11:03;;;;;;;0.50;0.50;;;;;;;8.90;87.08;96642.19;29395;207;63005;-57
2023/10/23 00:11:34;;;;;;;0.50;0.50;;;;;;;8.88;86.80;96639.75;29395;333;63009;-57
2023/10/23 00:12:08;;;;;;;0.50;0.50;;;;;;;8.87;86.80;96645.44;29395;199;63005;-57
2023/10/23 00:12:40;;;;;;;0.50;0.50;;;;;;;8.87;87.12;96642.75;29395;270;63009;-57
2023/10/23 00:13:12;;;;;;;0.50;0.50;;;;;;;8.86;87.47;96641.94;29395;209;63005;-57
2023/10/23 00:13:43;;;;;;;0.50;0.50;;;;;;;8.86;87.16;96641.13;29395;212;63009;-58
2023/10/23 00:14:14;;;;;;;0.50;0.50;;;;;;;8.85;87.19;96636.81;29395;238;63010;-57
2023/10/23 00:14:45;;;;;;;0.50;0.50;;;;;;;8.85;87.31;96640.31;29395;397;63009;-57
2023/10/23 00:15:17;;;;;;;0.50;0.50;;;;;;;8.85;87.30;96634.13;29394;315;64009;-58
2023/10/23 00:15:48;;;;;;;0.50;0.50;;;;;;;8.84;87.50;96641.41;29395;197;63009;-57
2023/10/23 00:16:20;;;;;;;0.50;0.50;;;;;;;8.83;87.31;96641.72;29395;212;63004;-58
2023/10/23 00:16:52;;;;;;;0.60;0.60;;;;;;;8.81;87.37;96643.91;29395;456;63008;-67
2023/10/23 00:17:23;;;;;;;0.50;0.50;;;;;;;8.82;87.96;96645.50;29395;231;63005;-57
2023/10/23 00:17:54;;;;;;;0.50;0.50;;;;;;;8.81;87.72;96643.91;29395;203;63009;-57
2023/10/23 00:18:25;;;;;;;0.50;0.50;;;;;;;8.80;88.13;96645.78;29394;199;64009;-58
2023/10/23 00:18:57;;;;;;;0.50;0.50;;;;;;;8.77;87.70;96646.38;29395;199;63009;-57
2023/10/23 00:19:28;;;;;;;0.50;0.50;;;;;;;8.77;88.08;96649.06;29395;232;63005;-58
2023/10/23 00:20:04;;;;;;;0.50;0.50;;;;;;;8.76;88.01;96642.03;29395;357;63009;-58
2023/10/23 00:20:35;;;;;;;0.50;0.50;;;;;;;8.77;88.40;96642.84;29395;253;63005;-57
2023/10/23 00:21:10;;;;;;;0.50;0.50;;;;;;;8.76;88.01;96649.34;29394;244;64013;-59
2023/10/23 00:21:44;;;;;;;0.50;0.50;;;;;;;8.75;88.13;96645.84;29395;198;63004;-58
2023/10/23 00:22:17;;;;;;;0.50;0.50;;;;;;;8.74;88.24;96645.03;29395;240;63009;-58
2023/10/23 00:22:48;;;;;;;0.50;0.50;;;;;;;8.75;88.34;96651.25;29395;269;63010;-58
2023/10/23 00:23:19;;;;;;;0.50;0.50;;;;;;;8.74;88.34;96644.22;29394;354;64013;-57
2023/10/23 00:23:50;;;;;;;4.95;4.50;;;;;;;8.74;88.66;96645.03;29395;196;63004;-58
2023/10/23 00:24:22;;;;;;;0.50;0.50;;;;;;;8.73;88.70;96648.84;29395;322;63016;-58
2023/10/23 00:24:54;;;;;;;0.50;0.50;;;;;;;8.74;88.87;96645.03;29395;242;63005;-57
2023/10/23 00:25:25;;;;;;;0.50;0.50;;;;;;;8.74;88.72;96646.94;29395;298;63009;-58
2023/10/23 00:25:57;;;;;;;0.50;0.50;;;;;;;8.74;88.98;96655.84;29395;346;63005;-57
2023/10/23 00:26:28;;;;;;;0.50;0.50;;;;;;;8.73;88.57;96648.84;29395;227;63009;-57
2023/10/23 00:26:59;;;;;;;0.50;0.50;;;;;;;8.72;88.79;96647.22;29395;197;63005;-58
2023/10/23 00:27:30;;;;;;;0.50;0.50;;;;;;;8.74;88.69;96655.84;29395;315;63009;-58
2023/10/23 00:28:01;;;;;;;0.50;0.50;;;;;;;8.74;88.78;96655.84;29395;358;63005;-57
2023/10/23 00:28:33;;;;;;;0.50;0.50;;;;;;;8.74;88.63;96658.56;29394;234;64013;-57
2023/10/23 00:29:09;;;;;;;0.50;0.50;;;;;;;8.74;88.96;96655.84;29395;199;63004;-58
2023/10/23 00:29:40;;;;;;;0.50;0.50;;;;;;;8.74;88.72;96655.84;29395;202;63009;-58
2023/10/23 00:30:12;;;;;;;0.50;0.50;;;;;;;8.75;88.79;96653.97;29395;432;63004;-58
2023/10/23 00:30:44;;;;;;;0.50;0.50;;;;;;;8.74;88.75;96658.56;29395;248;63009;-57
2023/10/23 00:31:15;;;;;;;0.50;0.50;;;;;;;8.74;88.63;96649.63;29395;229;63004;-58
2023/10/23 00:31:47;;;;;;;0.50;0.50;;;;;;;8.74;88.86;96655.84;29394;198;64013;-58
2023/10/23 00:32:18;;;;;;;0.50;0.50;;;;;;;8.73;88.96;96654.25;29395;225;63010;-57
2023/10/23 00:32:49;;;;;;;0.50;0.50;;;;;;;8.73;88.70;96650.72;29395;223;63009;-57
2023/10/23 00:33:21;;;;;;;0.50;0.50;;;;;;;8.73;88.72;96648.03;29395;284;63005;-57
2023/10/23 00:33:52;;;;;;;0.50;0.50;;;;;;;8.73;88.99;96651.53;29394;203;64013;-66
2023/10/23 00:34:24;;;;;;;0.50;0.50;;;;;;;8.73;88.85;96656.94;29395;203;63005;-59
2023/10/23 00:34:55;;;;;;;0.50;0.50;;;;;;;8.73;88.80;96648.84;29395;227;63009;-58
2023/10/23 00:35:27;;;;;;;0.50;0.50;;;;;;;8.74;88.89;96655.84;29395;228;63005;-57
2023/10/23 00:35:58;;;;;;;0.43;0.43;;;;;;;8.74;88.73;96655.84;29395;197;63009;-58
2023/10/23 00:36:29;;;;;;;0.50;0.50;;;;;;;8.74;89.26;96660.47;29395;197;63004;-58
2023/10/23 00:37:00;;;;;;;0.50;0.50;;;;;;;8.74;88.91;96650.44;29395;197;63009;-58
2023/10/23 00:37:32;;;;;;;0.50;0.50;;;;;;;8.74;89.14;96655.84;29394;237;64004;-58
2023/10/23 00:38:03;;;;;;;0.50;0.50;;;;;;;8.73;88.91;96658.84;29395;220;63008;-59
2023/10/23 00:38:34;;;;;;;0.50;0.50;;;;;;;8.72;88.90;96652.63;29395;202;63000;-57
2023/10/23 00:39:07;;;;;;;0.50;0.50;;;;;;;8.72;88.63;96651.81;29394;239;64013;-57
2023/10/23 00:39:38;;;;;;;0.50;0.50;;;;;;;8.69;89.21;96655.91;29394;395;64008;-58
2023/10/23 00:40:11;;;;;;;0.50;0.50;;;;;;;8.69;89.03;96655.91;29395;223;63009;-66
2023/10/23 00:40:42;;;;;;;0.50;0.50;;;;;;;8.68;88.79;96658.91;29395;233;63005;-57
2023/10/23 00:41:16;;;;;;;0.50;0.50;;;;;;;8.68;88.90;96654.28;29394;231;64013;-57
2023/10/23 00:41:47;;;;;;;0.50;0.50;;;;;;;8.70;89.07;96659.41;29395;202;63005;-58
2023/10/23 00:42:19;;;;;;;0.50;0.50;;;;;;;8.69;89.23;96661.31;29395;202;63009;-57
2023/10/23 00:42:50;;;;;;;0.50;0.50;;;;;;;8.70;88.96;96660.22;29395;252;63005;-57
2023/10/23 00:43:24;;;;;;;0.50;0.50;;;;;;;8.71;88.90;96656.44;29395;216;63009;-59
2023/10/23 00:43:56;;;;;;;0.50;0.50;;;;;;;8.72;88.97;96660.75;29395;223;63004;-59
2023/10/23 00:44:27;;;;;;;0.50;0.50;;;;;;;8.73;88.70;96659.66;29394;259;64013;-58
2023/10/23 00:44:59;;;;;;;0.50;0.50;;;;;;;8.72;88.80;96660.75;29395;251;63004;-67
2023/10/23 00:45:30;;;;;;;0.50;0.50;;;;;;;8.72;88.80;96663.44;29395;224;63009;-57
2023/10/23 00:46:10;;;;;;;0.50;0.50;;;;;;;8.74;88.92;96663.16;29394;248;64008;-67
2023/10/23 00:46:44;;;;;;;0.57;0.57;;;;;;;8.73;88.63;96658.84;29395;209;63009;-57
2023/10/23 00:47:16;;;;;;;0.50;0.50;;;;;;;8.74;88.89;96663.97;29395;322;63005;-57
2023/10/23 00:47:52;;;;;;;0.50;0.50;;;;;;;8.74;88.47;96661.25;29395;505;63009;-57
2023/10/23 00:48:24;;;;;;;0.50;0.50;;;;;;;8.74;88.64;96650.44;29395;205;63005;-58
2023/10/23 00:48:58;;;;;;;0.50;0.50;;;;;;;8.74;88.60;96655.84;29395;214;63009;-67
2023/10/23 00:49:29;;;;;;;0.50;0.50;;;;;;;8.75;88.97;96656.66;29394;243;64009;-68
2023/10/23 00:50:05;;;;;;;0.50;0.50;;;;;;;8.76;88.92;96657.47;29395;337;63009;-58
2023/10/23 00:50:36;;;;;;;0.50;0.50;;;;;;;8.76;88.85;96657.47;29395;215;63004;-57
2023/10/23 00:51:10;;;;;;;0.50;0.50;;;;;;;8.76;88.86;96657.47;29395;251;63009;-57
2023/10/23 00:51:42;;;;;;;0.50;0.50;;;;;;;8.77;88.85;96653.66;29395;416;63004;-57
2023/10/23 00:52:13;;;;;;;0.50;0.50;;;;;;;8.76;88.57;96658.28;29394;249;64013;-59
2023/10/23 00:52:44;;;;;;;0.50;0.50;;;;;;;8.77;88.65;96656.38;29395;361;63004;-58
2023/10/23 00:53:22;;;;;;;0.50;0.50;;;;;;;8.77;88.64;96648.25;29395;344;63008;-66
2023/10/23 00:53:55;;;;;;;0.50;0.50;;;;;;;8.78;88.36;96658.00;29395;197;63004;-58
2023/10/23 00:54:27;;;;;;;0.50;0.50;;;;;;;8.79;88.17;96662.31;29395;202;63009;-57
2023/10/23 00:54:59;;;;;;;0.50;0.50;;;;;;;8.80;88.21;96653.91;29395;377;63005;-58
2023/10/23 00:55:31;;;;;;;0.50;0.50;;;;;;;8.80;88.14;96653.91;29395;204;63009;-58
2023/10/23 00:56:04;;;;;;;0.55;0.55;;;;;;;8.80;87.91;96653.91;29395;313;63005;-58
2023/10/23 00:56:36;;;;;;;0.50;0.50;;;;;;;8.82;87.91;96657.13;29395;202;63009;-66
2023/10/23 00:57:08;;;;;;;0.50;0.50;;;;;;;8.84;87.94;96659.56;29394;230;64009;-58
2023/10/23 00:57:40;;;;;;;0.50;0.50;;;;;;;8.85;88.00;96661.97;29395;209;63009;-57
2023/10/23 00:58:13;;;;;;;0.70;0.70;;;;;;;8.87;87.70;96654.37;29395;202;63004;-57
2023/10/23 00:58:45;;;;;;;0.50;0.50;;;;;;;8.87;87.36;96648.16;29394;285;64013;-57
2023/10/23 00:59:20;;;;;;;0.50;0.50;;;;;;;8.90;87.28;96653.00;29395;272;63004;-57
2023/10/23 00:59:52;;;;;;;0.50;0.50;;;;;;;8.91;87.29;96651.91;29395;260;63004;-59
2023/10/23 01:00:24;;;;;;;0.50;0.50;;;;;;;8.92;87.56;96656.22;29394;326;64009;-58
2023/10/23 01:00:57;;;;;;;0.52;0.52;;;;;;;8.92;87.34;96656.22;29395;232;63008;-58
2023/10/23 01:01:32;;;;;;;0.50;0.50;;;;;;;8.92;87.37;96648.09;29395;198;63004;-58
2023/10/23 01:02:04;;;;;;;0.50;0.50;;;;;;;8.92;86.95;96648.09;29395;209;63009;-58
2023/10/23 01:02:35;;;;;;;0.50;0.50;;;;;;;8.92;86.97;96651.62;29394;226;64009;-58
2023/10/23 01:03:09;;;;;;;0.50;0.50;;;;;;;8.94;86.87;96648.63;29395;265;63009;-58
2023/10/23 01:03:41;;;;;;;0.50;0.50;;;;;;;8.93;87.07;96641.59;29395;197;63011;-58
2023/10/23 01:04:13;;;;;;;0.50;0.50;;;;;;;8.94;86.99;96645.91;29395;231;63009;-59
2023/10/23 01:04:44;;;;;;;0.50;0.50;;;;;;;8.95;86.75;96648.34;29395;288;63005;-58
2023/10/23 01:05:19;;;;;;;0.50;0.50;;;;;;;8.96;86.68;96649.16;29395;350;63009;-66
2023/10/23 01:05:51;;;;;;;0.50;0.50;;;;;;;8.96;86.83;96641.03;29395;237;63004;-60
2023/10/23 01:06:22;;;;;;;0.50;0.50;;;;;;;8.97;86.47;96648.06;29395;216;63009;-58
2023/10/23 01:06:56;;;;;;;0.50;0.50;;;;;;;8.97;86.32;96642.66;29394;229;64009;-58
2023/10/23 01:07:27;;;;;;;0.50;0.50;;;;;;;8.97;86.15;96645.34;29395;273;63009;-59
2023/10/23 01:07:59;;;;;;;0.50;0.50;;;;;;;8.93;85.74;96647.00;29395;207;63004;-58
2023/10/23 01:08:31;;;;;;;0.50;0.50;;;;;;;8.88;86.76;96645.16;29395;197;63018;-58
2023/10/23 01:09:03;;;;;;;0.50;0.50;;;;;;;8.87;86.83;96645.44;29395;258;63004;-58
2023/10/23 01:09:34;;;;;;;0.50;0.50;;;;;;;8.86;86.62;96647.34;29394;344;64014;-59
2023/10/23 01:10:06;;;;;;;0.50;0.50;;;;;;;8.83;87.07;96647.13;29394;198;64009;-57
2023/10/23 01:10:38;;;;;;;0.50;0.50;;;;;;;8.81;86.83;96649.31;29395;433;63009;-57
2023/10/23 01:11:09;;;;;;;0.50;0.50;;;;;;;8.80;87.15;96651.19;29395;231;63011;-57
2023/10/23 01:11:41;;;;;;;0.50;0.50;;;;;;;8.82;87.34;96645.50;29395;248;63009;-57
2023/10/23 01:12:12;;;;;;;0.50;0.50;;;;;;;8.83;87.11;96647.94;29395;197;63005;-57
2023/10/23 01:12:44;;;;;;;0.50;0.50;;;;;;;8.84;87.28;96637.91;29395;425;63009;-58
2023/10/23 01:13:15;;;;;;;0.50;0.50;;;;;;;8.85;87.41;96642.22;29395;231;63004;-57
2023/10/23 01:13:46;;;;;;;0.50;0.50;;;;;;;8.85;87.45;96643.03;29395;264;63009;-57
2023/10/23 01:14:17;;;;;;;0.50;0.50;;;;;;;8.85;87.15;96642.22;29395;231;63004;-57
2023/10/23 01:14:52;;;;;;;0.50;0.50;;;;;;;8.85;87.15;96640.31;29394;229;64013;-57
2023/10/23 01:15:24;;;;;;;0.50;0.50;;;;;;;8.85;86.96;96640.31;29395;263;63004;-59
2023/10/23 01:15:55;;;;;;;0.50;0.50;;;;;;;8.85;86.83;96644.94;29395;240;63015;-57
2023/10/23 01:16:26;;;;;;;0.50;0.50;;;;;;;8.83;87.03;96636.28;29395;201;63004;-57
2023/10/23 01:16:57;;;;;;;0.50;0.50;;;;;;;8.82;86.58;96637.38;29395;280;63009;-58
2023/10/23 01:17:29;;;;;;;0.50;0.50;;;;;;;8.80;86.30;96639.56;29394;207;64009;-58
2023/10/23 01:18:00;;;;;;;0.50;0.50;;;;;;;8.76;86.90;96646.66;29395;248;63009;-58
2023/10/23 01:18:32;;;;;;;0.50;0.50;;;;;;;8.70;87.20;96641.28;29395;237;63000;-58
2023/10/23 01:19:04;;;;;;;0.50;0.50;;;;;;;8.66;87.68;96642.94;29395;389;63009;-58
2023/10/23 01:19:36;;;;;;;0.50;0.50;;;;;;;8.65;87.63;96643.25;29394;283;64009;-58
2023/10/23 01:20:08;;;;;;;0.50;0.50;;;;;;;8.63;88.49;96642.75;29395;247;63009;-58
2023/10/23 01:20:41;;;;;;;0.50;0.50;;;;;;;8.60;87.99;96636.00;29395;198;63005;-58
2023/10/23 01:21:13;;;;;;;0.50;0.50;;;;;;;8.62;88.07;96635.72;29395;212;63009;-58
2023/10/23 01:21:44;;;;;;;0.50;0.50;;;;;;;8.62;88.27;96635.72;29395;210;63004;-57
2023/10/23 01:22:15;;;;;;;0.50;0.50;;;;;;;8.64;88.14;96639.75;29395;243;63004;-57
2023/10/23 01:22:46;;;;;;;0.50;0.50;;;;;;;8.64;87.91;96639.75;29395;250;63004;-57
2023/10/23 01:23:18;;;;;;;0.50;0.50;;;;;;;8.66;88.21;96642.19;29395;197;63009;-67
2023/10/23 01:23:51;;;;;;;0.50;0.50;;;;;;;8.66;88.18;96637.53;29395;199;63004;-57
2023/10/23 01:24:27;;;;;;;0.50;0.50;;;;;;;8.65;88.29;96635.97;29395;315;63009;-58
2023/10/23 01:25:01;;;;;;;0.50;0.50;;;;;;;8.65;87.88;96641.38;29394;245;64008;-58
2023/10/23 01:25:32;;;;;;;0.50;0.50;;;;;;;8.65;88.09;96635.97;29395;206;63009;-58
2023/10/23 01:26:03;;;;;;;0.50;0.50;;;;;;;8.65;87.90;96638.66;29395;215;63005;-59
2023/10/23 01:26:34;;;;;;;0.50;0.50;;;;;;;8.66;87.79;96634.84;29395;207;63009;-58
2023/10/23 01:27:06;;;;;;;0.50;0.50;;;;;;;8.64;87.63;96634.34;29395;251;63005;-58
2023/10/23 01:27:37;;;;;;;0.50;0.50;;;;;;;8.64;87.91;96634.34;29395;255;63009;-58
2023/10/23 01:28:09;;;;;;;0.50;0.50;;;;;;;8.66;87.62;96642.94;29394;252;64009;-58
2023/10/23 01:28:41;;;;;;;0.50;0.50;;;;;;;8.66;87.91;96637.53;29395;238;63025;-58
2023/10/23 01:29:12;;;;;;;0.50;0.50;;;;;;;8.66;87.92;96637.53;29395;219;63004;-58
2023/10/23 01:29:43;;;;;;;0.50;0.50;;;;;;;8.68;87.99;96634.56;29395;324;63009;-58
2023/10/23 01:30:18;;;;;;;0.50;0.50;;;;;;;8.67;87.92;96636.44;29395;232;63007;-58
2023/10/23 01:30:49;;;;;;;0.50;0.50;;;;;;;8.68;88.17;96638.06;29395;233;63009;-59
2023/10/23 01:31:20;;;;;;;0.50;0.50;;;;;;;8.69;87.84;96642.38;29395;226;63004;-58
2023/10/23 01:31:51;;;;;;;0.50;0.50;;;;;;;8.69;87.88;96636.97;29395;273;63009;-59
2023/10/23 01:32:23;;;;;;;0.50;0.50;;;;;;;8.69;88.18;96639.69;29395;215;63005;-58
2023/10/23 01:32:54;;;;;;;0.50;0.50;;;;;;;8.69;87.62;96642.38;29394;273;64014;-57
2023/10/23 01:33:26;;;;;;;0.50;0.50;;;;;;;8.69;87.37;96639.69;29395;199;63005;-58
2023/10/23 01:33:57;;;;;;;0.55;0.55;;;;;;;8.69;87.81;96641.56;29395;256;63009;-57
2023/10/23 01:34:28;;;;;;;0.50;0.50;;;;;;;8.68;87.85;96634.56;29395;262;63005;-57
2023/10/23 01:35:01;;;;;;;0.50;0.50;;;;;;;8.70;87.86;96640.47;29395;278;63020;-57
2023/10/23 01:35:32;;;;;;;0.50;0.50;;;;;;;8.68;87.82;96638.06;29394;216;64018;-67
2023/10/23 01:36:03;;;;;;;0.50;0.50;;;;;;;8.69;87.74;96636.97;29395;255;63009;-58
2023/10/23 01:36:35;;;;;;;0.50;0.50;;;;;;;8.70;87.95;96637.78;29395;210;63004;-58
2023/10/23 01:37:06;;;;;;;0.50;0.50;;;;;;;8.69;87.86;96642.38;29395;212;63009;-68
2023/10/23 01:37:38;;;;;;;0.50;0.50;;;;;;;8.69;87.90;96639.69;29395;257;63004;-57
2023/10/23 01:38:13;;;;;;;0.50;0.50;;;;;;;8.67;87.57;96632.94;29394;197;64013;-58
2023/10/23 01:38:44;;;;;;;0.57;0.57;;;;;;;8.69;87.83;96634.25;29395;248;63004;-57
2023/10/23 01:39:15;;;;;;;0.50;0.50;;;;;;;8.69;87.59;96639.69;29394;234;64014;-57
2023/10/23 01:39:46;;;;;;;0.50;0.50;;;;;;;8.67;87.61;96633.75;29395;248;63014;-66
2023/10/23 01:40:18;;;;;;;0.60;0.60;;;;;;;8.68;87.26;96640.75;29395;255;63009;-59
2023/10/23 01:40:49;;;;;;;0.50;0.50;;;;;;;8.68;87.21;96635.34;29395;293;63005;-57
2023/10/23 01:41:20;;;;;;;0.50;0.50;;;;;;;8.66;87.30;96637.53;29395;253;63009;-60
2023/10/23 01:41:52;;;;;;;0.50;0.50;;;;;;;8.66;87.31;96637.53;29395;222;63005;-57
2023/10/23 01:42:28;;;;;;;0.50;0.50;;;;;;;8.66;86.98;96634.84;29395;227;63009;-57
2023/10/23 01:42:59;;;;;;;0.50;0.50;;;;;;;8.65;86.94;96635.97;29394;260;64009;-59
2023/10/23 01:43:31;;;;;;;0.50;0.50;;;;;;;8.65;86.96;96637.84;29395;216;63009;-57
2023/10/23 01:44:02;;;;;;;0.50;0.50;;;;;;;8.64;87.11;96638.94;29395;203;63011;-59
2023/10/23 01:44:33;;;;;;;0.47;0.47;;;;;;;8.64;86.80;96634.34;29395;196;63009;-58
2023/10/23 01:45:05;;;;;;;0.50;0.50;;;;;;;8.64;87.08;96644.34;29395;222;63011;-57
2023/10/23 01:45:40;;;;;;;0.50;0.50;;;;;;;8.64;86.90;96638.94;29394;228;64013;-58
2023/10/23 01:46:11;;;;;;;0.50;0.50;;;;;;;8.65;87.18;96641.38;29395;230;63001;-58
2023/10/23 01:46:42;;;;;;;0.50;0.50;;;;;;;8.64;86.98;96638.94;29395;198;63009;-59
2023/10/23 01:47:17;;;;;;;0.50;0.50;;;;;;;8.64;87.20;96639.75;29395;265;63005;-57
2023/10/23 01:47:48;;;;;;;0.50;0.50;;;;;;;8.64;86.99;96634.34;29395;264;63009;-57
2023/10/23 01:48:19;;;;;;;0.50;0.50;;;;;;;8.64;86.90;96641.66;29395;345;63005;-57
2023/10/23 01:48:50;;;;;;;0.50;0.50;;;;;;;8.64;86.89;96645.16;29394;224;64013;-58
2023/10/23 01:49:21;;;;;;;0.50;0.50;;;;;;;8.64;86.34;96638.94;29395;310;63005;-57
2023/10/23 01:49:53;;;;;;;0.50;0.50;;;;;;;8.64;86.05;96634.34;29395;269;63009;-59
2023/10/23 01:50:24;;;;;;;0.50;0.50;;;;;;;8.64;86.20;96639.75;29394;231;64009;-59
2023/10/23 01:50:59;;;;;;;0.50;0.50;;;;;;;8.64;86.22;96639.75;29395;249;63009;-57
2023/10/23 01:51:34;;;;;;;0.50;0.50;;;;;;;8.64;85.74;96634.34;29395;202;63018;-59
2023/10/23 01:52:05;;;;;;;0.50;0.50;;;;;;;8.64;85.80;96633.53;29395;196;63009;-57
2023/10/23 01:52:36;;;;;;;0.50;0.50;;;;;;;8.64;85.66;96644.34;29395;210;63004;-57
2023/10/23 01:53:07;;;;;;;0.50;0.50;;;;;;;8.64;85.53;96628.12;29395;241;63008;-57
2023/10/23 01:53:39;;;;;;;0.60;0.60;;;;;;;8.65;85.91;96630.53;29394;198;64009;-58
2023/10/23 01:54:10;;;;;;;0.50;0.50;;;;;;;8.65;85.53;96630.53;29396;224;63009;-57
2023/10/23 01:54:43;;;;;;;0.57;0.57;;;;;;;8.66;85.75;96629.44;29394;250;64009;-57
2023/10/23 01:55:15;;;;;;;0.50;0.50;;;;;;;8.64;85.32;96631.63;29395;204;63009;-57
2023/10/23 01:55:46;;;;;;;0.50;0.50;;;;;;;8.65;85.56;96637.84;29395;278;63016;-57
2023/10/23 01:56:21;;;;;;;0.50;0.50;;;;;;;8.64;85.42;96633.53;29395;367;63009;-57
2023/10/23 01:56:52;;;;;;;0.50;0.50;;;;;;;8.63;85.77;96627.31;29395;206;63005;-59
2023/10/23 01:57:23;;;;;;;0.50;0.50;;;;;;;8.62;85.67;96624.91;29395;217;63009;-58
2023/10/23 01:57:58;;;;;;;0.50;0.50;;;;;;;8.62;85.88;96631.13;29395;267;63004;-57
2023/10/23 01:58:33;;;;;;;0.50;0.50;;;;;;;8.62;85.75;96631.13;29395;273;63009;-58
2023/10/23 01:59:04;;;;;;;0.50;0.50;;;;;;;8.61;86.10;96631.41;29395;227;63010;-58
2023/10/23 01:59:36;;;;;;;0.50;0.50;;;;;;;8.58;86.71;96630.06;29395;248;63009;-58
2023/10/23 02:00:10;;;;;;;0.50;0.50;;;;;;;8.53;86.66;96630.13;29394;202;64009;-57
2023/10/23 02:00:41;;;;;;;0.50;0.50;;;;;;;8.53;86.71;96630.13;29395;249;63008;-66
2023/10/23 02:01:23;;;;;;;0.50;0.50;;;;;;;8.53;86.89;96630.13;29395;227;63005;-58
2023/10/23 02:01:54;;;;;;;0.50;0.50;;;;;;;8.55;86.85;96627.13;29395;203;63009;-58
2023/10/23 02:02:26;;;;;;;0.50;0.50;;;;;;;8.55;86.93;96630.66;29395;248;63012;-57
2023/10/23 02:02:59;;;;;;;0.50;0.50;;;;;;;8.57;86.94;96627.66;29395;254;63009;-57
2023/10/23 02:03:31;;;;;;;0.50;0.50;;;;;;;8.57;87.05;96627.66;29395;262;63018;-57
2023/10/23 02:04:03;;;;;;;0.50;0.50;;;;;;;8.57;86.62;96625.75;29395;198;63009;-57
2023/10/23 02:04:36;;;;;;;0.50;0.50;;;;;;;8.55;86.68;96630.66;29394;224;64009;-58
2023/10/23 02:05:08;;;;;;;0.50;0.50;;;;;;;8.54;86.85;96629.03;29395;235;63009;-57
2023/10/23 02:05:40;;;;;;;0.60;0.60;;;;;;;8.55;87.22;96627.13;29395;212;63004;-58
2023/10/23 02:06:11;;;;;;;0.50;0.50;;;;;;;8.52;87.06;96636.62;29395;237;63009;-58
2023/10/23 02:06:45;;;;;;;0.50;0.50;;;;;;;8.50;nan;96628.00;29395;213;63004;-58
2023/10/23 02:07:17;;;;;;;0.50;0.50;;;;;;;8.49;87.19;96628.28;29395;287;63009;-58
2023/10/23 02:07:48;;;;;;;0.50;0.50;;;;;;;8.48;87.46;96634.78;29395;210;63004;-58
2023/10/23 02:08:23;;;;;;;0.50;0.50;;;;;;;8.45;87.85;96633.44;29395;234;63004;-59
2023/10/23 02:08:58;;;;;;;0.50;0.50;;;;;;;8.43;88.02;96632.91;29395;202;63005;-58
2023/10/23 02:09:29;;;;;;;0.50;0.50;;;;;;;8.40;88.21;96638.88;29394;229;64014;-67
2023/10/23 02:10:01;;;;;;;0.60;0.60;;;;;;;8.37;88.29;96639.47;29395;266;63005;-57
2023/10/23 02:10:32;;;;;;;0.55;0.55;;;;;;;8.36;88.14;96637.84;29395;204;63009;-67
2023/10/23 02:11:03;;;;;;;0.50;0.50;;;;;;;8.36;88.79;96635.94;29395;196;63005;-59
2023/10/23 02:11:35;;;;;;;0.50;0.50;;;;;;;8.35;88.73;96637.03;29395;250;63009;-58
2023/10/23 02:12:07;;;;;;;0.50;0.50;;;;;;;8.34;88.89;96634.63;29395;257;63009;-59
2023/10/23 02:12:38;;;;;;;0.50;0.50;;;;;;;8.30;88.86;96628.97;29395;261;63009;-57
2023/10/23 02:13:09;;;;;;;0.50;0.50;;;;;;;8.27;89.10;96629.53;29395;222;63004;-58
2023/10/23 02:13:40;;;;;;;0.50;0.50;;;;;;;8.25;89.44;96637.13;29395;228;63009;-57
2023/10/23 02:14:14;;;;;;;0.50;0.50;;;;;;;8.22;89.87;96636.88;29395;268;63018;-58
2023/10/23 02:14:50;;;;;;;0.60;0.60;;;;;;;8.20;89.44;96634.47;29394;204;64013;-57
2023/10/23 02:15:21;;;;;;;0.50;0.50;;;;;;;8.20;89.70;96633.66;29394;266;64008;-57
2023/10/23 02:15:52;;;;;;;0.50;0.50;;;;;;;8.18;89.74;96638.53;29395;199;63008;-58
2023/10/23 02:16:24;;;;;;;0.50;0.50;;;;;;;8.14;90.57;96635.59;29395;203;63005;-58
2023/10/23 02:16:55;;;;;;;0.50;0.50;;;;;;;8.12;90.67;96631.56;29395;270;63009;-58
2023/10/23 02:18:30;;;;;;;0.53;0.53;;;;;;;8.02;90.87;96633.25;88182;203;64005;-91
2023/10/23 02:19:02;;;;;;;0.50;0.50;;;;;;;8.00;90.83;96624.59;29394;211;64009;-90
2023/10/23 02:19:34;;;;;;;0.50;0.50;;;;;;;7.96;90.88;96637.09;29395;222;63009;-91
2023/10/23 02:20:08;;;;;;;0.50;0.50;;;;;;;7.90;91.34;96630.13;29395;221;63009;-90
2023/10/23 02:20:39;;;;;;;0.50;0.50;;;;;;;7.86;91.52;96629.06;29394;204;64009;-93
2023/10/23 02:21:13;;;;;;;0.50;0.50;;;;;;;7.84;91.57;96625.03;29394;210;64013;-91
2023/10/23 02:21:49;;;;;;;0.50;0.50;;;;;;;7.83;91.55;96618.00;29395;202;63005;-91
2023/10/23 02:22:21;;;;;;;0.50;0.50;;;;;;;7.83;91.88;96629.63;29395;263;63009;-92
2023/10/23 02:22:55;;;;;;;0.60;0.60;;;;;;;7.82;91.58;96628.00;29395;244;63004;-90
2023/10/23 02:23:29;;;;;;;0.50;0.50;;;;;;;7.81;91.70;96631.00;29395;221;63009;-90
2023/10/23 02:24:00;;;;;;;0.50;0.50;;;;;;;7.79;91.92;96631.25;29395;214;63004;-91
2023/10/23 02:24:31;;;;;;;0.50;0.50;;;;;;;7.77;92.37;96636.12;29395;223;63009;-92
2023/10/23 02:25:09;;;;;;;0.50;0.50;;;;;;;7.76;92.19;96629.12;29395;210;63004;-90
2023/10/23 02:25:40;;;;;;;0.50;0.50;;;;;;;7.77;92.43;96630.75;29394;196;64013;-90
2023/10/23 02:26:11;;;;;;;0.50;0.50;;;;;;;7.78;92.66;96635.06;29394;230;64008;-90
2023/10/23 02:26:54;;;;;;;0.50;0.50;;;;;;;7.81;92.84;96637.19;29395;257;63009;-91
2023/10/23 02:27:31;;;;;;;0.50;0.50;;;;;;;7.84;92.75;96642.03;29395;236;63005;-89
2023/10/23 02:28:05;;;;;;;0.50;0.50;;;;;;;7.86;92.79;96631.75;29395;248;63009;-90
2023/10/23 02:28:36;;;;;;;0.50;0.50;;;;;;;7.88;92.97;96637.69;29395;219;63005;-91
2023/10/23 02:29:13;;;;;;;0.60;0.60;;;;;;;7.90;93.10;96630.13;29395;212;63009;-90
2023/10/23 02:29:44;;;;;;;0.50;0.50;;;;;;;7.91;92.91;96629.03;29395;262;63004;-91
2023/10/23 02:30:18;;;;;;;0.50;0.50;;;;;;;7.93;93.17;96637.66;29395;210;63009;-93
2023/10/23 02:30:49;;;;;;;0.50;0.50;;;;;;;7.95;92.75;96632.78;29394;241;64009;-90
2023/10/23 02:31:23;;;;;;;0.50;0.50;;;;;;;7.98;92.27;96634.09;29395;239;63009;-89
2023/10/23 02:31:56;;;;;;;0.50;0.50;;;;;;;8.00;92.15;96631.91;29394;237;64009;-91
2023/10/23 02:32:28;;;;;;;0.50;0.50;;;;;;;8.01;91.79;96631.63;29394;315;64013;-91
2023/10/23 02:32:59;;;;;;;0.50;0.50;;;;;;;8.04;91.18;96631.06;29395;247;63005;-91
2023/10/23 02:33:36;;;;;;;0.50;0.50;;;;;;;8.07;90.80;96633.19;29395;225;63009;-91
2023/10/23 02:34:12;;;;;;;0.50;0.50;;;;;;;8.09;90.42;96638.31;29395;269;63005;-91
2023/10/23 02:34:43;;;;;;;0.50;0.50;;;;;;;8.11;90.35;96632.63;29395;197;63009;-90
2023/10/23 02:35:15;;;;;;;0.50;0.50;;;;;;;8.12;89.93;96631.56;29394;205;64009;-91
2023/10/23 02:35:49;;;;;;;0.50;0.50;;;;;;;8.12;89.75;96629.66;29395;204;63009;-91
2023/10/23 02:36:20;;;;;;;0.50;0.50;;;;;;;8.11;89.80;96629.94;29395;381;63005;-91